Time;durP1;ratioP1;P1;durP2;ratioP2;P2;SDS_P1;SDS_P2;PMS_P1;PMS_P2;Temp;Humidity;BMP_temperature;BMP_pressure;BME280_temperature;BME280_humidity;BME280_pressure;Samples;Min_cycle;Max_cycle;Signal;HPM_P1;HPM_P2
2023/04/23 00:01:13;;;;;;;18.70;3.33;;;10.80;99.90;;;;;;5012067;28;20128;-47
2023/04/23 00:03:41;;;;;;;19.13;2.80;;;10.80;99.90;;;;;;5012075;28;20065;-47
2023/04/23 00:06:09;;;;;;;17.48;2.65;;;10.80;99.90;;;;;;5011862;28;20022;-49
2023/04/23 00:08:38;;;;;;;19.50;2.97;;;10.80;99.90;;;;;;5012164;28;20125;-45
2023/04/23 00:11:05;;;;;;;21.97;3.90;;;10.70;99.90;;;;;;5012075;28;20108;-45
2023/04/23 00:13:31;;;;;;;21.10;2.25;;;10.70;99.90;;;;;;5011831;28;20390;-47
2023/04/23 00:15:56;;;;;;;22.42;2.75;;;10.70;99.90;;;;;;5012081;28;20101;-51
2023/04/23 00:18:22;;;;;;;13.02;2.17;;;10.70;99.90;;;;;;5011889;28;20033;-53
2023/04/23 00:20:48;;;;;;;18.08;2.30;;;10.70;99.90;;;;;;5011819;28;20061;-50
2023/04/23 00:23:14;;;;;;;16.02;2.50;;;10.60;99.90;;;;;;5012128;28;20022;-50
2023/04/23 00:25:39;;;;;;;17.20;3.08;;;10.60;99.90;;;;;;5011880;28;20022;-47
2023/04/23 00:28:05;;;;;;;21.00;2.60;;;10.60;99.90;;;;;;5011961;28;20129;-51
2023/04/23 00:30:31;;;;;;;18.92;2.40;;;10.60;99.90;;;;;;5011825;28;20385;-47
2023/04/23 00:32:56;;;;;;;17.73;2.22;;;10.60;99.90;;;;;;5009804;28;20358;-51
2023/04/23 00:35:22;;;;;;;21.50;2.65;;;10.60;99.90;;;;;;5010290;28;20029;-50
2023/04/23 00:37:48;;;;;;;22.02;2.47;;;10.60;99.90;;;;;;5011812;28;20105;-54
2023/04/23 00:40:13;;;;;;;17.92;2.80;;;10.70;99.90;;;;;;5011506;28;20381;-52
2023/04/23 00:42:39;;;;;;;16.73;2.22;;;10.70;99.90;;;;;;5011383;28;20026;-51
2023/04/23 00:45:07;;;;;;;15.32;2.28;;;10.70;99.90;;;;;;5011494;28;20088;-52
2023/04/23 00:47:34;;;;;;;19.58;3.20;;;10.70;99.90;;;;;;5011422;28;20026;-48
2023/04/23 00:50:00;;;;;;;15.60;2.13;;;10.70;99.90;;;;;;5011356;28;20469;-55
2023/04/23 00:52:25;;;;;;;15.73;2.10;;;10.70;99.90;;;;;;5011533;28;20034;-46
2023/04/23 00:54:51;;;;;;;16.63;2.67;;;10.80;99.90;;;;;;5011388;28;20072;-48
2023/04/23 00:57:17;;;;;;;18.15;2.70;;;10.80;99.90;;;;;;5011367;28;20034;-51
2023/04/23 00:59:43;;;;;;;17.55;2.58;;;10.80;99.90;;;;;;5010999;28;20034;-45
2023/04/23 01:02:09;;;;;;;16.83;2.42;;;10.80;99.90;;;;;;5011102;28;20057;-53
2023/04/23 01:04:36;;;;;;;18.60;2.13;;;10.80;99.90;;;;;;5010607;28;20022;-53
2023/04/23 01:07:02;;;;;;;15.40;2.28;;;10.80;99.90;;;;;;5011076;28;20390;-55
2023/04/23 01:09:28;;;;;;;21.05;2.60;;;10.80;99.90;;;;;;5011007;28;20042;-51
2023/04/23 01:11:56;;;;;;;21.70;2.97;;;10.80;99.90;;;;;;5011241;28;20026;-49
2023/04/23 01:14:22;;;;;;;21.58;2.95;;;10.80;99.90;;;;;;5011004;28;20024;-50
2023/04/23 01:16:48;;;;;;;16.17;2.63;;;10.80;99.90;;;;;;5010932;28;20104;-48
2023/04/23 01:19:14;;;;;;;23.55;2.80;;;10.80;99.90;;;;;;5011070;28;20037;-51
2023/04/23 01:21:41;;;;;;;10.60;1.88;;;10.80;99.90;;;;;;5010972;28;20014;-46
2023/04/23 01:24:07;;;;;;;11.77;1.85;;;10.80;99.90;;;;;;5009620;28;20124;-45
2023/04/23 01:26:33;;;;;;;11.30;1.80;;;10.80;99.90;;;;;;5011040;28;20052;-45
2023/04/23 01:29:00;;;;;;;13.90;2.22;;;10.80;99.90;;;;;;5010849;28;20548;-44
2023/04/23 01:31:26;;;;;;;13.85;2.42;;;10.90;99.90;;;;;;5010827;28;20029;-51
2023/04/23 01:33:54;;;;;;;9.40;1.88;;;10.90;99.90;;;;;;5010752;28;20026;-47
2023/04/23 01:36:23;;;;;;;12.07;1.70;;;10.80;99.90;;;;;;5010788;28;20022;-56
2023/04/23 01:38:50;;;;;;;17.25;1.63;;;10.80;99.90;;;;;;5010893;28;20076;-53
2023/04/23 01:41:15;;;;;;;14.63;2.08;;;10.90;99.90;;;;;;5010830;28;20101;-46
2023/04/23 01:43:42;;;;;;;14.02;1.60;;;10.80;99.90;;;;;;5013277;28;20113;-49
2023/04/23 01:46:08;;;;;;;17.27;2.38;;;10.90;99.90;;;;;;5014736;28;20211;-49
2023/04/23 01:48:34;;;;;;;16.48;2.20;;;10.90;99.90;;;;;;5014658;28;20042;-47
2023/04/23 01:51:00;;;;;;;20.15;2.70;;;10.80;99.90;;;;;;5014746;28;20101;-46
2023/04/23 01:53:25;;;;;;;14.52;2.03;;;10.80;99.90;;;;;;5014668;28;20018;-48
2023/04/23 01:55:51;;;;;;;16.63;2.20;;;10.90;99.90;;;;;;5014558;28;20018;-49
2023/04/23 01:58:18;;;;;;;20.08;2.35;;;10.90;99.90;;;;;;5014624;28;20062;-50
2023/04/23 02:00:43;;;;;;;13.43;2.35;;;10.90;99.90;;;;;;5014474;28;20121;-50
2023/04/23 02:03:09;;;;;;;12.68;2.05;;;10.90;99.90;;;;;;5014465;28;20109;-51
2023/04/23 02:05:37;;;;;;;14.57;2.35;;;10.90;99.90;;;;;;5012989;28;20026;-51
2023/04/23 02:08:03;;;;;;;15.50;2.10;;;10.90;99.90;;;;;;5014491;28;20044;-48
2023/04/23 02:10:30;;;;;;;14.32;2.08;;;11.00;99.90;;;;;;5014392;28;20393;-48
2023/04/23 02:12:57;;;;;;;20.25;2.35;;;10.90;99.90;;;;;;5014338;28;20037;-50
2023/04/23 02:15:23;;;;;;;21.05;2.60;;;10.90;99.90;;;;;;5014145;28;20520;-56
2023/04/23 02:17:52;;;;;;;18.90;2.88;;;10.90;99.90;;;;;;5014430;28;20029;-49
2023/04/23 02:20:18;;;;;;;23.43;3.27;;;11.00;99.90;;;;;;5014135;28;20021;-49
2023/04/23 02:22:45;;;;;;;13.25;2.15;;;10.90;99.90;;;;;;5014393;28;20112;-49
2023/04/23 02:25:14;;;;;;;17.67;2.17;;;10.90;99.90;;;;;;5014140;28;20033;-50
2023/04/23 02:27:40;;;;;;;20.02;2.33;;;10.80;99.90;;;;;;5014074;28;20022;-49
2023/04/23 02:30:07;;;;;;;14.90;2.08;;;10.80;99.90;;;;;;5010786;28;20120;-49
2023/04/23 02:32:33;;;;;;;13.20;2.45;;;10.80;99.90;;;;;;5016233;28;20037;-46
2023/04/23 02:35:00;;;;;;;15.98;2.75;;;10.80;99.90;;;;;;5017897;28;20026;-49
2023/04/23 02:37:26;;;;;;;28.02;2.65;;;10.80;99.90;;;;;;5017016;28;20030;-46
2023/04/23 02:39:52;;;;;;;16.35;2.53;;;10.70;99.90;;;;;;5013777;28;20037;-54
2023/04/23 02:42:18;;;;;;;18.42;2.65;;;10.80;99.90;;;;;;5013767;28;20025;-52
2023/04/23 02:44:43;;;;;;;17.98;2.78;;;10.70;99.90;;;;;;5013704;28;20152;-52
2023/04/23 02:47:09;;;;;;;11.85;2.35;;;10.70;99.90;;;;;;5013772;28;20022;-52
2023/04/23 02:49:35;;;;;;;17.20;3.25;;;10.60;99.90;;;;;;5013513;28;20401;-57
2023/04/23 02:52:01;;;;;;;15.95;3.05;;;10.60;99.90;;;;;;5013642;28;20026;-51
2023/04/23 02:54:27;;;;;;;19.30;3.10;;;10.60;99.90;;;;;;5013055;28;20080;-57
2023/04/23 02:56:52;;;;;;;21.98;3.45;;;10.60;99.90;;;;;;5013308;28;20477;-52
2023/04/23 02:59:18;;;;;;;16.67;2.55;;;10.60;99.90;;;;;;5013552;28;20037;-49
2023/04/23 03:01:44;;;;;;;20.80;3.75;;;10.70;99.90;;;;;;5013249;28;20062;-48
2023/04/23 03:04:11;;;;;;;24.77;3.13;;;10.70;99.90;;;;;;5012039;28;20702;-48
2023/04/23 03:06:36;;;;;;;19.40;3.65;;;10.70;99.90;;;;;;5012939;28;20033;-51
2023/04/23 03:09:02;;;;;;;16.30;3.15;;;10.70;99.90;;;;;;5013552;28;20038;-55
2023/04/23 03:11:28;;;;;;;20.98;4.15;;;10.70;99.90;;;;;;5013394;28;20029;-54
2023/04/23 03:13:53;;;;;;;19.50;3.75;;;10.70;99.90;;;;;;5013104;28;20358;-54
2023/04/23 03:16:19;;;;;;;19.02;3.38;;;10.70;99.90;;;;;;5013350;28;20436;-47
2023/04/23 03:18:45;;;;;;;27.75;4.13;;;10.70;99.90;;;;;;5028245;28;20022;-50
2023/04/23 03:21:10;;;;;;;19.23;3.78;;;10.80;99.90;;;;;;5013019;28;20049;-53
2023/04/23 03:23:36;;;;;;;26.45;4.45;;;10.80;99.90;;;;;;5012760;28;20030;-56
2023/04/23 03:26:02;;;;;;;29.70;4.18;;;10.80;99.90;;;;;;5012746;28;20033;-51
2023/04/23 03:28:29;;;;;;;33.28;4.60;;;10.80;99.90;;;;;;5013141;28;20084;-51
2023/04/23 03:30:55;;;;;;;29.38;4.65;;;10.80;99.90;;;;;;5011768;28;20469;-55
2023/04/23 03:33:21;;;;;;;26.77;4.38;;;10.80;99.90;;;;;;5012463;28;20180;-46
2023/04/23 03:35:46;;;;;;;23.52;5.30;;;10.80;99.90;;;;;;5012779;28;20018;-52
2023/04/23 03:38:12;;;;;;;22.33;4.32;;;10.80;99.90;;;;;;5011224;28;20034;-57
2023/04/23 03:40:37;;;;;;;28.63;4.93;;;10.80;99.90;;;;;;5012566;28;20390;-49
2023/04/23 03:43:03;;;;;;;27.45;4.82;;;10.80;99.90;;;;;;5011513;28;20168;-54
2023/04/23 03:45:30;;;;;;;28.25;5.35;;;10.80;99.90;;;;;;5012629;28;20029;-56
2023/04/23 03:47:55;;;;;;;25.45;5.68;;;10.80;99.90;;;;;;5012575;28;20114;-53
2023/04/23 03:50:21;;;;;;;28.83;4.90;;;10.80;99.90;;;;;;5012495;28;20616;-51
2023/04/23 03:52:46;;;;;;;36.40;5.30;;;10.80;99.90;;;;;;5012368;28;20075;-47
2023/04/23 03:55:12;;;;;;;28.88;4.85;;;10.80;99.90;;;;;;5012261;28;20083;-53
2023/04/23 03:57:38;;;;;;;30.67;4.95;;;10.80;99.90;;;;;;5012293;28;20088;-46
2023/04/23 04:00:09;;;;;;;31.60;4.85;;;10.90;99.90;;;;;;5012321;28;20032;-46
2023/04/23 04:02:36;;;;;;;26.92;5.35;;;10.90;99.90;;;;;;5011242;28;20045;-50
2023/04/23 04:05:01;;;;;;;36.53;5.93;;;10.90;99.90;;;;;;5012229;28;20108;-54
2023/04/23 04:07:27;;;;;;;28.10;4.82;;;10.90;99.90;;;;;;5011092;28;20029;-47
2023/04/23 04:09:53;;;;;;;40.33;6.22;;;10.90;99.90;;;;;;5011866;28;20126;-49
2023/04/23 04:12:18;;;;;;;29.80;5.13;;;10.90;99.90;;;;;;5012148;28;20075;-47
2023/04/23 04:14:44;;;;;;;30.52;4.65;;;10.90;99.90;;;;;;5012176;28;20104;-48
2023/04/23 04:17:11;;;;;;;24.25;3.92;;;10.90;99.90;;;;;;5010745;28;20491;-45
2023/04/23 04:19:37;;;;;;;26.25;4.40;;;10.90;99.90;;;;;;5012179;28;20034;-47
2023/04/23 04:22:03;;;;;;;34.85;5.43;;;10.90;99.90;;;;;;5011787;28;20045;-45
2023/04/23 04:24:31;;;;;;;41.53;4.88;;;10.90;99.90;;;;;;5011929;28;20128;-46
2023/04/23 04:26:58;;;;;;;28.10;5.88;;;10.90;99.90;;;;;;5012051;28;20030;-45
2023/04/23 04:29:25;;;;;;;34.15;5.55;;;10.90;99.90;;;;;;5011792;28;20064;-45
2023/04/23 04:31:51;;;;;;;28.55;4.57;;;10.80;99.90;;;;;;5011657;28;20109;-45
2023/04/23 04:34:17;;;;;;;32.67;5.55;;;10.80;99.90;;;;;;5011546;28;20041;-45
2023/04/23 04:36:43;;;;;;;24.80;4.55;;;10.80;99.90;;;;;;5011444;28;20074;-45
2023/04/23 04:39:08;;;;;;;31.67;5.18;;;10.80;99.90;;;;;;5009918;28;20049;-47
2023/04/23 04:41:36;;;;;;;26.40;4.30;;;10.80;99.90;;;;;;5011699;28;20033;-46
2023/04/23 04:44:01;;;;;;;27.98;4.97;;;10.90;99.90;;;;;;5011728;28;20037;-49
2023/04/23 04:46:28;;;;;;;28.10;4.40;;;10.80;99.90;;;;;;5011605;28;20018;-46
2023/04/23 04:48:54;;;;;;;26.00;4.75;;;10.80;99.90;;;;;;5011162;28;20041;-45
2023/04/23 04:51:20;;;;;;;38.88;5.30;;;10.80;99.90;;;;;;5011504;28;20026;-44
2023/04/23 04:53:45;;;;;;;32.00;4.70;;;10.80;99.90;;;;;;5011270;28;20033;-46
2023/04/23 04:56:11;;;;;;;25.77;4.65;;;10.80;99.90;;;;;;5011487;28;20392;-43
2023/04/23 04:58:37;;;;;;;38.08;4.60;;;10.80;99.90;;;;;;5011400;28;20026;-52
2023/04/23 05:01:04;;;;;;;29.70;6.13;;;10.80;99.90;;;;;;5011018;28;20076;-44
2023/04/23 05:03:30;;;;;;;35.03;5.28;;;10.80;99.90;;;;;;5011212;28;20030;-47
2023/04/23 05:05:57;;;;;;;27.70;5.53;;;10.80;99.90;;;;;;5011128;28;20432;-54
2023/04/23 05:08:23;;;;;;;23.38;3.92;;;10.90;99.90;;;;;;5010962;28;20038;-48
2023/04/23 05:10:49;;;;;;;28.30;4.35;;;10.90;99.90;;;;;;5011173;28;20041;-50
2023/04/23 05:13:15;;;;;;;28.45;5.38;;;10.90;99.90;;;;;;5011058;28;20014;-51
2023/04/23 05:15:41;;;;;;;36.97;4.40;;;10.90;99.90;;;;;;5011013;28;20021;-45
2023/04/23 05:18:09;;;;;;;35.50;5.18;;;10.90;99.90;;;;;;5010604;28;20063;-49
2023/04/23 05:20:35;;;;;;;25.80;4.65;;;10.90;99.90;;;;;;5010930;28;20033;-48
2023/04/23 05:23:01;;;;;;;25.42;4.28;;;10.90;99.90;;;;;;5010757;28;20026;-49
2023/04/23 05:25:29;;;;;;;27.10;4.25;;;10.90;99.90;;;;;;5011004;28;20029;-55
2023/04/23 05:27:54;;;;;;;27.20;4.15;;;10.90;99.90;;;;;;5010588;28;20099;-54
2023/04/23 05:30:20;;;;;;;25.02;4.00;;;10.90;99.90;;;;;;5011058;28;20409;-51
2023/04/23 05:32:46;;;;;;;19.98;4.32;;;10.90;99.90;;;;;;5010720;28;20105;-45
2023/04/23 05:35:11;;;;;;;32.33;4.68;;;10.90;99.90;;;;;;5010809;28;20113;-45
2023/04/23 05:37:37;;;;;;;26.38;4.07;;;10.90;99.90;;;;;;5010373;28;20113;-45
2023/04/23 05:40:05;;;;;;;21.00;4.05;;;10.90;99.90;;;;;;5010740;28;20400;-45
2023/04/23 05:42:31;;;;;;;26.10;4.40;;;11.00;99.90;;;;;;5010690;28;20026;-51
2023/04/23 05:44:56;;;;;;;27.50;4.75;;;11.00;99.90;;;;;;5010873;28;20440;-49
2023/04/23 05:47:22;;;;;;;27.10;4.53;;;11.00;99.90;;;;;;5010596;28;20030;-45
2023/04/23 05:49:48;;;;;;;24.42;4.20;;;11.00;99.90;;;;;;5010534;28;20038;-52
2023/04/23 05:52:14;;;;;;;26.33;4.95;;;11.00;99.90;;;;;;5010518;28;20076;-52
2023/04/23 05:54:41;;;;;;;27.25;4.15;;;11.10;99.90;;;;;;5010473;28;20061;-44
2023/04/23 05:57:06;;;;;;;27.95;5.15;;;11.10;99.90;;;;;;5009244;28;20504;-52
2023/04/23 05:59:33;;;;;;;24.00;4.85;;;11.10;99.90;;;;;;5010655;28;20030;-48
2023/04/23 06:01:58;;;;;;;38.28;5.78;;;11.10;99.90;;;;;;5010175;28;20073;-45
2023/04/23 06:04:24;;;;;;;30.23;5.40;;;11.10;99.90;;;;;;5010323;28;20022;-44
2023/04/23 06:06:50;;;;;;;24.90;5.60;;;11.10;99.90;;;;;;5010287;28;20026;-44
2023/04/23 06:09:15;;;;;;;23.88;5.25;;;11.10;99.90;;;;;;5010439;28;20066;-48
2023/04/23 06:11:41;;;;;;;18.33;4.53;;;11.10;99.90;;;;;;5010261;28;20115;-44
2023/04/23 06:14:07;;;;;;;23.95;5.10;;;11.10;99.90;;;;;;4987399;28;20026;-44
2023/04/23 06:16:32;;;;;;;23.65;4.55;;;11.10;99.90;;;;;;5010201;28;20022;-48
2023/04/23 06:18:58;;;;;;;18.20;4.90;;;11.00;99.90;;;;;;5009893;28;20034;-50
2023/04/23 06:21:26;;;;;;;25.38;4.88;;;11.00;99.90;;;;;;5010539;28;20014;-45
2023/04/23 06:23:52;;;;;;;22.10;4.85;;;11.10;99.90;;;;;;5010404;28;20159;-48
2023/04/23 06:26:17;;;;;;;32.83;5.43;;;11.10;99.90;;;;;;5010299;28;20025;-54
2023/04/23 06:28:45;;;;;;;32.20;5.43;;;11.10;99.90;;;;;;5010054;28;20034;-52
2023/04/23 06:31:11;;;;;;;25.50;5.13;;;11.10;99.90;;;;;;5013185;28;20018;-47
2023/04/23 06:33:36;;;;;;;28.60;5.20;;;11.10;99.90;;;;;;5013780;28;20033;-51
2023/04/23 06:36:03;;;;;;;19.58;4.78;;;11.10;99.90;;;;;;5013908;28;20083;-49
2023/04/23 06:38:29;;;;;;;28.15;5.53;;;11.20;99.90;;;;;;5012848;28;20026;-50
2023/04/23 06:40:55;;;;;;;22.02;5.00;;;11.20;99.90;;;;;;5013742;28;20105;-45
2023/04/23 06:43:20;;;;;;;29.05;5.55;;;11.20;99.90;;;;;;5006632;28;20026;-51
2023/04/23 06:45:46;;;;;;;31.85;5.57;;;11.20;99.90;;;;;;5000643;28;20022;-53
2023/04/23 06:48:11;;;;;;;29.95;6.03;;;11.30;99.90;;;;;;5004222;28;20037;-44
2023/04/23 06:50:39;;;;;;;18.92;4.63;;;11.30;99.90;;;;;;5013456;28;20018;-52
2023/04/23 06:53:04;;;;;;;21.98;5.20;;;11.40;99.90;;;;;;5013712;28;20017;-51
2023/04/23 06:55:30;;;;;;;21.50;5.05;;;11.40;99.90;;;;;;5013339;28;20029;-47
2023/04/23 06:57:57;;;;;;;19.67;4.82;;;11.50;99.90;;;;;;5013522;28;20029;-49
2023/04/23 07:00:23;;;;;;;27.70;4.88;;;11.50;99.90;;;;;;5013107;28;20141;-47
2023/04/23 07:02:48;;;;;;;26.27;5.38;;;11.50;99.90;;;;;;5013208;28;20034;-47
2023/04/23 07:05:15;;;;;;;30.00;5.30;;;11.40;99.90;;;;;;5013524;28;20050;-45
2023/04/23 07:07:42;;;;;;;26.33;5.63;;;11.30;99.90;;;;;;5012755;28;20429;-49
2023/04/23 07:10:09;;;;;;;18.50;4.45;;;11.30;99.90;;;;;;5012985;28;20038;-50
2023/04/23 07:12:36;;;;;;;21.58;4.85;;;11.30;99.90;;;;;;5013035;28;20044;-49
2023/04/23 07:15:02;;;;;;;26.15;5.03;;;11.20;99.90;;;;;;5013124;28;20119;-52
2023/04/23 07:17:27;;;;;;;24.45;4.50;;;11.20;99.90;;;;;;5012899;28;20385;-45
2023/04/23 07:19:53;;;;;;;25.75;4.60;;;11.30;99.90;;;;;;5012880;28;20228;-47
2023/04/23 07:22:18;;;;;;;22.48;4.38;;;11.30;99.90;;;;;;5012905;28;20022;-45
2023/04/23 07:24:44;;;;;;;21.25;4.43;;;11.40;99.90;;;;;;5012978;28;20520;-48
2023/04/23 07:27:10;;;;;;;16.02;4.03;;;11.40;99.90;;;;;;5012678;28;20092;-48
2023/04/23 07:29:35;;;;;;;29.67;4.57;;;11.40;99.90;;;;;;5012725;28;20056;-47
2023/04/23 07:32:01;;;;;;;18.65;3.85;;;11.50;99.90;;;;;;5012674;28;20022;-58
2023/04/23 07:34:27;;;;;;;18.33;4.40;;;11.50;99.90;;;;;;5012671;28;20025;-50
2023/04/23 07:36:52;;;;;;;15.18;3.40;;;11.40;99.90;;;;;;5012341;28;20478;-47
2023/04/23 07:39:18;;;;;;;20.85;4.28;;;11.40;99.90;;;;;;5012703;28;20026;-51
2023/04/23 07:41:43;;;;;;;19.90;3.88;;;11.40;99.90;;;;;;5012435;28;20034;-44
2023/04/23 07:44:09;;;;;;;20.13;3.95;;;11.30;99.90;;;;;;5012575;28;20060;-53
2023/04/23 07:46:35;;;;;;;18.20;3.60;;;11.20;99.90;;;;;;5012642;28;20034;-53
2023/04/23 07:49:00;;;;;;;19.10;3.92;;;11.20;99.90;;;;;;5012433;28;20034;-56
2023/04/23 07:51:26;;;;;;;15.13;4.13;;;11.20;99.90;;;;;;5012524;28;20026;-48
2023/04/23 07:53:53;;;;;;;28.63;4.72;;;11.20;99.90;;;;;;5012263;28;20026;-44
2023/04/23 07:56:23;;;;;;;21.52;3.85;;;11.20;99.90;;;;;;5012441;28;20037;-50
2023/04/23 07:58:49;;;;;;;21.00;4.13;;;11.20;99.90;;;;;;5010861;28;20405;-50
2023/04/23 08:01:15;;;;;;;15.63;2.97;;;11.10;99.90;;;;;;5012013;28;20046;-45
2023/04/23 08:03:41;;;;;;;22.65;3.55;;;11.10;99.90;;;;;;5012232;28;20048;-45
2023/04/23 08:06:06;;;;;;;12.25;3.05;;;11.10;99.90;;;;;;5012303;28;20026;-47
2023/04/23 08:08:32;;;;;;;13.70;3.47;;;11.00;99.90;;;;;;5010504;28;20049;-48
2023/04/23 08:10:58;;;;;;;13.32;3.08;;;11.00;99.90;;;;;;5012215;28;20029;-46
2023/04/23 08:13:23;;;;;;;13.88;2.65;;;11.00;99.90;;;;;;5012166;28;20156;-52
2023/04/23 08:15:50;;;;;;;16.30;3.05;;;10.90;99.90;;;;;;5011948;28;20029;-51
2023/04/23 08:18:16;;;;;;;12.23;3.30;;;10.90;99.90;;;;;;5012216;28;20036;-45
2023/04/23 08:20:42;;;;;;;15.65;3.63;;;10.90;99.90;;;;;;5011988;28;20106;-50
2023/04/23 08:23:07;;;;;;;14.32;2.80;;;10.90;99.90;;;;;;5011666;28;20022;-52
2023/04/23 08:25:33;;;;;;;14.70;2.80;;;10.80;99.90;;;;;;5011892;28;20109;-48
2023/04/23 08:28:02;;;;;;;9.15;2.55;;;10.90;99.90;;;;;;5011739;28;20030;-56
2023/04/23 08:30:28;;;;;;;13.02;1.83;;;10.80;99.90;;;;;;5011644;28;20018;-45
2023/04/23 08:32:54;;;;;;;12.20;1.83;;;10.80;99.90;;;;;;5011777;28;20481;-48
2023/04/23 08:35:20;;;;;;;13.57;2.17;;;10.70;99.90;;;;;;5011572;28;20029;-43
2023/04/23 08:37:45;;;;;;;14.43;2.40;;;10.60;99.90;;;;;;5011455;28;20059;-50
2023/04/23 08:40:12;;;;;;;20.92;2.75;;;10.60;99.90;;;;;;5011822;28;20125;-43
2023/04/23 08:42:56;;;;;;;13.40;2.20;;;10.60;99.90;;;;;;5011348;28;20080;-49
2023/04/23 08:45:22;;;;;;;14.27;2.22;;;10.60;99.90;;;;;;5011505;28;20026;-46
2023/04/23 08:47:48;;;;;;;10.75;2.50;;;10.70;99.90;;;;;;5011635;28;20029;-43
2023/04/23 08:50:17;;;;;;;15.82;2.35;;;10.70;99.90;;;;;;5010213;28;20034;-48
2023/04/23 08:52:51;;;;;;;10.32;1.77;;;10.90;99.90;;;;;;5011005;28;20018;-44
2023/04/23 08:55:19;;;;;;;9.63;2.20;;;10.90;99.90;;;;;;5011209;28;20018;-44
2023/04/23 08:57:46;;;;;;;12.60;2.00;;;11.10;99.90;;;;;;5011366;28;20029;-49
2023/04/23 09:00:13;;;;;;;8.75;2.20;;;11.10;99.90;;;;;;5011020;28;20030;-43
2023/04/23 09:02:40;;;;;;;5.00;1.50;;;11.10;99.90;;;;;;5011043;28;20038;-43
2023/04/23 09:05:07;;;;;;;5.85;1.30;;;11.10;99.90;;;;;;5010746;28;20026;-51
2023/04/23 09:07:33;;;;;;;3.63;1.05;;;11.10;99.90;;;;;;5010802;28;20041;-49
2023/04/23 09:09:59;;;;;;;2.65;0.90;;;11.10;99.90;;;;;;5010720;28;20038;-47
2023/04/23 09:12:25;;;;;;;2.42;0.88;;;11.10;99.90;;;;;;5011324;28;20359;-46
2023/04/23 09:14:51;;;;;;;2.63;0.93;;;11.00;99.90;;;;;;5010586;28;20539;-45
2023/04/23 09:17:17;;;;;;;4.07;1.20;;;11.00;99.90;;;;;;5011066;28;20354;-47
2023/04/23 09:19:45;;;;;;;2.80;0.88;;;11.00;99.90;;;;;;5010843;28;20032;-53
2023/04/23 09:22:11;;;;;;;3.63;1.02;;;11.00;99.90;;;;;;5010942;28;20026;-45
2023/04/23 09:24:41;;;;;;;3.33;0.90;;;10.90;99.90;;;;;;5012030;28;20029;-46
2023/04/23 09:27:06;;;;;;;2.25;0.80;;;10.90;99.90;;;;;;5012125;28;20454;-44
2023/04/23 09:29:32;;;;;;;2.65;0.90;;;11.00;99.90;;;;;;5012389;28;20109;-44
2023/04/23 09:32:08;;;;;;;3.80;1.13;;;11.00;99.90;;;;;;5011472;28;20065;-45
2023/04/23 09:34:38;;;;;;;4.75;1.40;;;11.20;99.90;;;;;;5010950;28;20109;-52
2023/04/23 09:37:04;;;;;;;;;;;11.40;99.90;;;;;;5010774;28;20101;-47
2023/04/23 09:39:32;;;;;;;4.50;1.10;;;11.50;99.90;;;;;;5010439;28;19910;-53
2023/04/23 09:42:03;;;;;;;4.60;1.10;;;11.70;99.90;;;;;;5009997;28;20117;-45
2023/04/23 09:44:31;;;;;;;4.80;0.90;;;11.80;99.90;;;;;;5010306;28;20044;-50
2023/04/23 09:47:08;;;;;;;2.92;0.93;;;11.90;99.90;;;;;;5010043;28;20030;-48
2023/04/23 09:49:47;;;;;;;4.85;1.10;;;12.10;99.90;;;;;;5010443;28;20128;-48
2023/04/23 09:52:13;;;;;;;3.10;0.77;;;12.10;99.90;;;;;;5002328;28;20021;-50
2023/04/23 09:54:39;;;;;;;6.47;1.20;;;12.10;99.90;;;;;;5010234;28;20041;-49
2023/04/23 09:57:07;;;;;;;5.07;0.80;;;12.10;99.90;;;;;;5010358;28;20030;-48
2023/04/23 09:59:37;;;;;;;4.80;0.73;;;12.10;99.90;;;;;;5010176;28;20042;-45
2023/04/23 10:02:03;;;;;;;;;;;12.00;99.90;;;;;;5010512;28;20085;-54
2023/04/23 10:04:29;;;;;;;5.97;1.10;;;12.10;99.90;;;;;;5011097;28;19913;-48
2023/04/23 10:06:55;;;;;;;4.90;0.85;;;12.10;99.90;;;;;;5013739;28;20342;-51
2023/04/23 10:09:23;;;;;;;5.57;0.90;;;12.10;99.90;;;;;;5014244;28;20045;-45
2023/04/23 10:11:53;;;;;;;5.68;0.90;;;12.20;99.90;;;;;;5013777;28;20033;-45
2023/04/23 10:14:22;;;;;;;4.40;0.82;;;12.30;99.90;;;;;;5013949;28;20067;-43
2023/04/23 10:16:50;;;;;;;;;;;12.50;99.90;;;;;;5014282;28;20409;-43
2023/04/23 10:19:21;;;;;;;6.55;1.08;;;12.60;99.90;;;;;;5013999;28;19936;-46
2023/04/23 10:21:52;;;;;;;6.82;1.17;;;12.70;99.90;;;;;;5013879;28;20061;-46
2023/04/23 10:24:19;;;;;;;3.67;0.90;;;12.60;99.90;;;;;;5014146;28;20029;-44
2023/04/23 10:26:47;;;;;;;7.90;1.40;;;12.70;99.90;;;;;;5013635;28;20444;-49
2023/04/23 10:29:15;;;;;;;8.98;1.52;;;12.60;99.90;;;;;;5013812;28;20042;-51
2023/04/23 10:31:41;;;;;;;2.40;0.63;;;12.70;99.90;;;;;;5013241;28;20486;-52
2023/04/23 10:34:09;;;;;;;3.45;0.70;;;12.80;99.90;;;;;;5013411;28;20034;-52
2023/04/23 10:36:38;;;;;;;5.18;0.80;;;12.90;99.90;;;;;;5013093;28;20029;-45
2023/04/23 10:39:07;;;;;;;8.40;0.90;;;12.90;99.90;;;;;;5013199;28;20026;-51
2023/04/23 10:41:38;;;;;;;4.43;0.87;;;13.00;99.90;;;;;;5013239;28;20024;-51
2023/04/23 10:44:04;;;;;;;6.35;1.08;;;13.00;99.90;;;;;;5013122;28;20018;-46
2023/04/23 10:46:31;;;;;;;4.90;1.00;;;12.90;99.90;;;;;;5013275;28;20022;-44
2023/04/23 10:49:13;;;;;;;2.53;0.60;;;12.70;99.90;;;;;;5013855;28;20111;-50
2023/04/23 10:51:41;;;;;;;2.45;0.50;;;12.60;99.90;;;;;;5013581;28;20046;-46
2023/04/23 10:54:13;;;;;;;4.97;0.73;;;12.50;99.90;;;;;;5012150;28;20030;-48
2023/04/23 10:56:42;;;;;;;5.50;0.60;;;12.40;99.90;;;;;;5011560;28;20063;-45
2023/04/23 10:59:19;;;;;;;;;;;12.20;99.90;;;;;;5008327;28;20104;-45
2023/04/23 11:01:49;;;;;;;5.40;0.70;;;12.20;99.90;;;;;;5009108;28;19917;-48
2023/04/23 11:04:24;;;;;;;3.35;0.60;;;12.20;99.90;;;;;;5012048;28;20022;-48
2023/04/23 11:06:53;;;;;;;3.28;0.85;;;12.30;99.90;;;;;;5013128;28;20485;-48
2023/04/23 11:09:35;;;;;;;3.22;0.57;;;12.50;99.90;;;;;;5000152;28;20030;-43
2023/04/23 11:12:01;;;;;;;5.93;1.10;;;12.60;99.90;;;;;;5012982;28;20037;-47
2023/04/23 11:14:41;;;;;;;5.90;0.80;;;12.50;99.90;;;;;;5010424;28;20026;-46
2023/04/23 11:17:06;;;;;;;3.97;0.90;;;12.50;99.90;;;;;;5011869;28;20054;-43
2023/04/23 11:19:36;;;;;;;6.43;1.23;;;12.60;99.90;;;;;;5009194;28;20049;-50
2023/04/23 11:22:19;;;;;;;4.55;1.20;;;12.60;99.90;;;;;;5010706;28;20572;-49
2023/04/23 11:24:45;;;;;;;4.03;0.60;;;12.80;99.90;;;;;;5007647;28;20025;-50
2023/04/23 11:27:12;;;;;;;1.60;0.40;;;13.00;99.90;;;;;;5000602;28;20064;-44
2023/04/23 11:29:40;;;;;;;2.33;0.75;;;13.10;99.90;;;;;;5004352;28;20441;-49
2023/04/23 11:32:09;;;;;;;5.38;1.02;;;13.20;99.90;;;;;;5002113;28;20018;-44
2023/04/23 11:34:40;;;;;;;4.40;0.80;;;13.20;99.90;;;;;;5003639;28;20018;-46
2023/04/23 11:37:14;;;;;;;2.22;0.60;;;13.20;99.90;;;;;;5011511;28;20560;-43
2023/04/23 11:39:42;;;;;;;5.43;0.73;;;13.20;99.90;;;;;;4998678;28;20038;-51
2023/04/23 11:42:12;;;;;;;1.92;0.70;;;13.40;99.90;;;;;;5005636;28;20018;-50
2023/04/23 11:44:40;;;;;;;2.30;0.70;;;13.60;99.90;;;;;;4996817;28;20109;-49
2023/04/23 11:47:10;;;;;;;5.53;0.70;;;13.80;99.90;;;;;;5008448;28;20079;-49
2023/04/23 11:49:37;;;;;;;1.95;0.47;;;13.90;99.90;;;;;;4997906;28;20065;-46
2023/04/23 11:52:03;;;;;;;2.92;0.60;;;13.90;99.90;;;;;;5008557;28;20014;-47
2023/04/23 11:54:29;;;;;;;3.60;0.68;;;13.90;99.90;;;;;;5012538;28;20025;-47
2023/04/23 11:56:55;;;;;;;2.17;0.68;;;14.00;99.90;;;;;;5008659;28;20021;-45
2023/04/23 11:59:21;;;;;;;1.35;0.50;;;14.00;99.90;;;;;;5012386;28;20477;-43
2023/04/23 12:01:54;;;;;;;2.13;0.50;;;14.10;99.90;;;;;;5011881;28;20057;-45
2023/04/23 12:04:23;;;;;;;2.47;0.93;;;14.00;99.90;;;;;;5012174;28;20026;-49
2023/04/23 12:06:50;;;;;;;2.90;0.57;;;14.00;99.90;;;;;;5012101;28;20118;-51
2023/04/23 12:09:18;;;;;;;2.28;0.80;;;14.00;99.90;;;;;;5012062;28;20041;-44
2023/04/23 12:11:44;;;;;;;2.40;0.65;;;14.00;99.90;;;;;;5011902;28;20421;-49
2023/04/23 12:14:12;;;;;;;3.70;0.68;;;14.00;99.90;;;;;;5011992;28;20034;-44
2023/04/23 12:16:40;;;;;;;1.85;0.60;;;14.00;99.90;;;;;;5012061;28;20420;-46
2023/04/23 12:19:15;;;;;;;3.28;0.90;;;14.00;99.90;;;;;;4994550;28;20030;-48
2023/04/23 12:21:48;;;;;;;2.85;0.73;;;14.00;99.90;;;;;;5011737;28;20034;-52
2023/04/23 12:24:14;;;;;;;2.60;0.60;;;14.10;99.90;;;;;;5012223;28;20033;-48
2023/04/23 12:26:42;;;;;;;3.40;0.80;;;14.20;99.90;;;;;;4997711;28;20046;-52
2023/04/23 12:29:08;;;;;;;3.58;0.80;;;14.40;99.90;;;;;;4993593;28;20402;-49
2023/04/23 12:31:37;;;;;;;1.83;0.77;;;14.60;99.90;;;;;;5003222;28;20028;-44
2023/04/23 12:34:05;;;;;;;2.83;0.80;;;14.90;99.90;;;;;;5006765;28;20390;-47
2023/04/23 12:36:31;;;;;;;1.70;0.57;;;15.10;99.90;;;;;;5002814;28;20030;-52
2023/04/23 12:39:22;;;;;;;2.22;0.60;;;15.10;99.90;;;;;;5011884;28;20022;-47